sensor_id;sensor_type;location;lat;lon;timestamp;pressure;altitude;pressure_sealevel;temperature;humidity
5996;BME280;3026;53.612;7.278;2023-08-20T00:00:21;101937.06;;;17.33;100.00
5996;BME280;3026;53.612;7.278;2023-08-20T00:02:49;101946.41;;;17.32;100.00
5996;BME280;3026;53.612;7.278;2023-08-20T00:05:18;101942.97;;;17.30;100.00
5996;BME280;3026;53.612;7.278;2023-08-20T00:07:49;101951.44;;;17.29;100.00
5996;BME280;3026;53.612;7.278;2023-08-20T00:10:16;101947.53;;;17.23;100.00
5996;BME280;3026;53.612;7.278;2023-08-20T00:12:44;101952.19;;;17.23;100.00
5996;BME280;3026;53.612;7.278;2023-08-20T00:15:12;101942.41;;;17.20;100.00
5996;BME280;3026;53.612;7.278;2023-08-20T00:17:40;101944.50;;;17.18;100.00
5996;BME280;3026;53.612;7.278;2023-08-20T00:20:09;101948.69;;;17.14;100.00
5996;BME280;3026;53.612;7.278;2023-08-20T00:22:40;101945.25;;;17.12;100.00
5996;BME280;3026;53.612;7.278;2023-08-20T00:25:12;101932.91;;;17.08;100.00
5996;BME280;3026;53.612;7.278;2023-08-20T00:27:40;101944.66;;;17.02;100.00
5996;BME280;3026;53.612;7.278;2023-08-20T00:30:10;101945.03;;;16.99;100.00
5996;BME280;3026;53.612;7.278;2023-08-20T00:32:37;101947.13;;;16.97;100.00
5996;BME280;3026;53.612;7.278;2023-08-20T00:35:06;101945.81;;;16.92;100.00
5996;BME280;3026;53.612;7.278;2023-08-20T00:37:34;101949.59;;;16.91;100.00
5996;BME280;3026;53.612;7.278;2023-08-20T00:40:01;101949.97;;;16.88;100.00
5996;BME280;3026;53.612;7.278;2023-08-20T00:42:31;101951.84;;;16.88;100.00
5996;BME280;3026;53.612;7.278;2023-08-20T00:44:58;101953.75;;;16.87;100.00
5996;BME280;3026;53.612;7.278;2023-08-20T00:47:25;101956.91;;;16.84;100.00
5996;BME280;3026;53.612;7.278;2023-08-20T00:49:54;101954.53;;;16.81;100.00
5996;BME280;3026;53.612;7.278;2023-08-20T00:52:22;101967.44;;;16.81;100.00
5996;BME280;3026;53.612;7.278;2023-08-20T00:54:50;101966.59;;;16.80;100.00
5996;BME280;3026;53.612;7.278;2023-08-20T00:57:18;101960.38;;;16.78;100.00
5996;BME280;3026;53.612;7.278;2023-08-20T00:59:49;101969.69;;;16.77;100.00
5996;BME280;3026;53.612;7.278;2023-08-20T01:02:17;101975.59;;;16.74;100.00
5996;BME280;3026;53.612;7.278;2023-08-20T01:04:46;101972.16;;;16.72;100.00
5996;BME280;3026;53.612;7.278;2023-08-20T01:07:23;101967.03;;;16.69;100.00
5996;BME280;3026;53.612;7.278;2023-08-20T01:09:57;101976.66;;;16.65;100.00
5996;BME280;3026;53.612;7.278;2023-08-20T01:12:26;101977.88;;;16.62;100.00
5996;BME280;3026;53.612;7.278;2023-08-20T01:14:55;101979.97;;;16.60;100.00
5996;BME280;3026;53.612;7.278;2023-08-20T01:17:23;101971.06;;;16.58;100.00
5996;BME280;3026;53.612;7.278;2023-08-20T01:19:51;101970.38;;;16.56;100.00
5996;BME280;3026;53.612;7.278;2023-08-20T01:22:54;101965.03;;;16.55;100.00
5996;BME280;3026;53.612;7.278;2023-08-20T01:25:34;101968.34;;;16.50;100.00
5996;BME280;3026;53.612;7.278;2023-08-20T01:57:01;102001.75;;;16.24;100.00
5996;BME280;3026;53.612;7.278;2023-08-20T01:59:28;102005.53;;;16.23;100.00
5996;BME280;3026;53.612;7.278;2023-08-20T02:01:56;102011.03;;;16.23;100.00
5996;BME280;3026;53.612;7.278;2023-08-20T02:04:23;102011.03;;;16.23;100.00
5996;BME280;3026;53.612;7.278;2023-08-20T02:06:51;102007.25;;;16.24;100.00
5996;BME280;3026;53.612;7.278;2023-08-20T02:09:17;102006.03;;;16.27;100.00
5996;BME280;3026;53.612;7.278;2023-08-20T02:11:46;102007.25;;;16.24;100.00
5996;BME280;3026;53.612;7.278;2023-08-20T02:14:15;102003.84;;;16.22;100.00
5996;BME280;3026;53.612;7.278;2023-08-20T02:16:46;102013.13;;;16.21;100.00
5996;BME280;3026;53.612;7.278;2023-08-20T02:19:13;102016.75;;;16.22;100.00
5996;BME280;3026;53.612;7.278;2023-08-20T02:21:40;102018.63;;;16.21;100.00
5996;BME280;3026;53.612;7.278;2023-08-20T02:24:07;102016.88;;;16.20;100.00
5996;BME280;3026;53.612;7.278;2023-08-20T02:26:34;102005.88;;;16.20;100.00
5996;BME280;3026;53.612;7.278;2023-08-20T02:29:02;102020.69;;;16.19;100.00
5996;BME280;3026;53.612;7.278;2023-08-20T02:31:32;102015.38;;;16.18;100.00
5996;BME280;3026;53.612;7.278;2023-08-20T02:34:00;102013.84;;;16.15;100.00
5996;BME280;3026;53.612;7.278;2023-08-20T02:36:27;102011.09;;;16.15;100.00
5996;BME280;3026;53.612;7.278;2023-08-20T02:38:54;102014.03;;;16.14;100.00
5996;BME280;3026;53.612;7.278;2023-08-20T02:41:21;102017.63;;;16.14;100.00
5996;BME280;3026;53.612;7.278;2023-08-20T02:43:50;102013.34;;;16.12;100.00
5996;BME280;3026;53.612;7.278;2023-08-20T02:46:17;102014.22;;;16.12;100.00
5996;BME280;3026;53.612;7.278;2023-08-20T02:48:45;102021.78;;;16.10;100.00
5996;BME280;3026;53.612;7.278;2023-08-20T02:51:12;102010.78;;;16.10;100.00
5996;BME280;3026;53.612;7.278;2023-08-20T02:53:39;102010.09;;;16.08;100.00
5996;BME280;3026;53.612;7.278;2023-08-20T02:56:08;102002.19;;;16.05;100.00
5996;BME280;3026;53.612;7.278;2023-08-20T02:58:35;102008.06;;;16.02;100.00
5996;BME280;3026;53.612;7.278;2023-08-20T03:01:05;101991.06;;;15.98;100.00
5996;BME280;3026;53.612;7.278;2023-08-20T03:03:32;101987.47;;;15.98;100.00
5996;BME280;3026;53.612;7.278;2023-08-20T03:06:01;101982.97;;;15.97;100.00
5996;BME280;3026;53.612;7.278;2023-08-20T03:08:30;101970.25;;;15.96;100.00
5996;BME280;3026;53.612;7.278;2023-08-20T03:10:57;101975.75;;;15.96;100.00
5996;BME280;3026;53.612;7.278;2023-08-20T03:13:24;101968.56;;;15.95;100.00
5996;BME280;3026;53.612;7.278;2023-08-20T03:15:51;101964.09;;;15.94;100.00
5996;BME280;3026;53.612;7.278;2023-08-20T03:18:18;101966.84;;;15.94;100.00
5996;BME280;3026;53.612;7.278;2023-08-20T03:20:45;101970.63;;;15.93;100.00
5996;BME280;3026;53.612;7.278;2023-08-20T03:23:14;101969.59;;;15.94;100.00
5996;BME280;3026;53.612;7.278;2023-08-20T03:25:41;101972.34;;;15.94;100.00
5996;BME280;3026;53.612;7.278;2023-08-20T03:28:08;101968.91;;;15.92;100.00
5996;BME280;3026;53.612;7.278;2023-08-20T03:30:39;101960.84;;;15.90;100.00
5996;BME280;3026;53.612;7.278;2023-08-20T03:33:06;101971.00;;;15.90;100.00
5996;BME280;3026;53.612;7.278;2023-08-20T03:35:33;101986.84;;;15.88;100.00
5996;BME280;3026;53.612;7.278;2023-08-20T03:38:00;101984.41;;;15.85;100.00
5996;BME280;3026;53.612;7.278;2023-08-20T03:40:29;101978.91;;;15.85;100.00
5996;BME280;3026;53.612;7.278;2023-08-20T03:42:56;101983.56;;;15.84;100.00
5996;BME280;3026;53.612;7.278;2023-08-20T03:45:23;101979.09;;;15.83;100.00
5996;BME280;3026;53.612;7.278;2023-08-20T03:47:50;101984.78;;;15.82;100.00
5996;BME280;3026;53.612;7.278;2023-08-20T03:50:23;101981.38;;;15.80;100.00
5996;BME280;3026;53.612;7.278;2023-08-20T03:52:50;101977.94;;;15.78;100.00
5996;BME280;3026;53.612;7.278;2023-08-20T03:55:17;101974.50;;;15.75;100.00
5996;BME280;3026;53.612;7.278;2023-08-20T03:57:47;101961.09;;;15.72;100.00
5996;BME280;3026;53.612;7.278;2023-08-20T04:00:14;101976.94;;;15.70;100.00
5996;BME280;3026;53.612;7.278;2023-08-20T04:02:43;101975.22;;;15.69;100.00
5996;BME280;3026;53.612;7.278;2023-08-20T04:05:11;101973.50;;;15.68;100.00
5996;BME280;3026;53.612;7.278;2023-08-20T04:07:39;101973.69;;;15.67;100.00
5996;BME280;3026;53.612;7.278;2023-08-20T04:10:07;101975.59;;;15.66;100.00
5996;BME280;3026;53.612;7.278;2023-08-20T04:12:35;101976.63;;;15.65;100.00
5996;BME280;3026;53.612;7.278;2023-08-20T04:15:05;101978.50;;;15.65;100.00
5996;BME280;3026;53.612;7.278;2023-08-20T04:17:32;101983.34;;;15.63;100.00
5996;BME280;3026;53.612;7.278;2023-08-20T04:19:59;101992.44;;;15.63;100.00
5996;BME280;3026;53.612;7.278;2023-08-20T04:22:32;101992.78;;;15.60;100.00
5996;BME280;3026;53.612;7.278;2023-08-20T04:25:00;101984.34;;;15.62;100.00
5996;BME280;3026;53.612;7.278;2023-08-20T04:27:26;101987.28;;;15.60;100.00
5996;BME280;3026;53.612;7.278;2023-08-20T04:29:55;101995.34;;;15.62;100.00
5996;BME280;3026;53.612;7.278;2023-08-20T04:32:26;101998.28;;;15.60;100.00
5996;BME280;3026;53.612;7.278;2023-08-20T04:34:55;101996.53;;;15.59;100.00
5996;BME280;3026;53.612;7.278;2023-08-20T04:37:22;101997.41;;;15.60;100.00
5996;BME280;3026;53.612;7.278;2023-08-20T04:39:50;102004.78;;;15.59;100.00
5996;BME280;3026;53.612;7.278;2023-08-20T04:42:17;102003.06;;;15.58;100.00
5996;BME280;3026;53.612;7.278;2023-08-20T04:44:44;102005.81;;;15.58;100.00
5996;BME280;3026;53.612;7.278;2023-08-20T04:47:11;102010.28;;;15.59;100.00
5996;BME280;3026;53.612;7.278;2023-08-20T04:49:41;102006.66;;;15.59;100.00
5996;BME280;3026;53.612;7.278;2023-08-20T04:52:08;102015.78;;;15.59;100.00
5996;BME280;3026;53.612;7.278;2023-08-20T04:54:36;102009.59;;;15.57;100.00
5996;BME280;3026;53.612;7.278;2023-08-20T04:57:05;102021.13;;;15.61;100.00
5996;BME280;3026;53.612;7.278;2023-08-20T04:59:32;102021.97;;;15.61;100.00
5996;BME280;3026;53.612;7.278;2023-08-20T05:02:00;102025.75;;;15.60;100.00
5996;BME280;3026;53.612;7.278;2023-08-20T05:04:29;102018.19;;;15.62;100.00
5996;BME280;3026;53.612;7.278;2023-08-20T05:07:00;102027.16;;;15.64;100.00
5996;BME280;3026;53.612;7.278;2023-08-20T05:09:31;102029.72;;;15.66;100.00
5996;BME280;3026;53.612;7.278;2023-08-20T05:11:58;102028.50;;;15.68;100.00
5996;BME280;3026;53.612;7.278;2023-08-20T05:14:25;102028.13;;;15.71;100.00
5996;BME280;3026;53.612;7.278;2023-08-20T05:16:52;102033.31;;;15.74;100.00
5996;BME280;3026;53.612;7.278;2023-08-20T05:19:19;102037.41;;;15.79;100.00
5996;BME280;3026;53.612;7.278;2023-08-20T05:21:47;102032.56;;;15.81;100.00
5996;BME280;3026;53.612;7.278;2023-08-20T05:24:16;102039.28;;;15.86;100.00
5996;BME280;3026;53.612;7.278;2023-08-20T05:26:43;102037.00;;;15.90;100.00
5996;BME280;3026;53.612;7.278;2023-08-20T05:29:12;102036.66;;;15.93;100.00
5996;BME280;3026;53.612;7.278;2023-08-20T05:31:46;102034.25;;;15.98;100.00
5996;BME280;3026;53.612;7.278;2023-08-20T05:34:13;102035.56;;;16.02;100.00
5996;BME280;3026;53.612;7.278;2023-08-20T05:36:41;102047.94;;;16.06;100.00
5996;BME280;3026;53.612;7.278;2023-08-20T05:39:08;102043.63;;;16.12;100.00
5996;BME280;3026;53.612;7.278;2023-08-20T05:41:36;102047.53;;;16.17;100.00
5996;BME280;3026;53.612;7.278;2023-08-20T05:44:05;102049.91;;;16.20;100.00
5996;BME280;3026;53.612;7.278;2023-08-20T05:46:32;102050.91;;;16.27;100.00
5996;BME280;3026;53.612;7.278;2023-08-20T05:49:00;102058.47;;;16.33;100.00
5996;BME280;3026;53.612;7.278;2023-08-20T05:51:27;102052.22;;;16.40;100.00
5996;BME280;3026;53.612;7.278;2023-08-20T05:53:54;102061.47;;;16.47;100.00
5996;BME280;3026;53.612;7.278;2023-08-20T05:56:21;102058.66;;;16.55;100.00
5996;BME280;3026;53.612;7.278;2023-08-20T05:58:50;102061.34;;;16.63;100.00
5996;BME280;3026;53.612;7.278;2023-08-20T06:01:17;102062.56;;;16.69;100.00
5996;BME280;3026;53.612;7.278;2023-08-20T06:03:44;102067.13;;;16.76;100.00
5996;BME280;3026;53.612;7.278;2023-08-20T06:06:11;102062.63;;;16.83;100.00
5996;BME280;3026;53.612;7.278;2023-08-20T06:08:38;102063.59;;;16.90;100.00
5996;BME280;3026;53.612;7.278;2023-08-20T06:11:05;102065.41;;;16.98;100.00
5996;BME280;3026;53.612;7.278;2023-08-20T06:13:32;102066.22;;;17.07;100.00
5996;BME280;3026;53.612;7.278;2023-08-20T06:16:02;102058.06;;;17.13;100.00
5996;BME280;3026;53.612;7.278;2023-08-20T06:18:29;102049.72;;;17.21;100.00
5996;BME280;3026;53.612;7.278;2023-08-20T06:21:00;102045.56;;;17.26;100.00
5996;BME280;3026;53.612;7.278;2023-08-20T06:23:27;102041.84;;;17.33;100.00
5996;BME280;3026;53.612;7.278;2023-08-20T06:26:03;102045.56;;;17.40;100.00
5996;BME280;3026;53.612;7.278;2023-08-20T06:28:30;102045.47;;;17.48;100.00
5996;BME280;3026;53.612;7.278;2023-08-20T06:30:57;102040.91;;;17.56;100.00
5996;BME280;3026;53.612;7.278;2023-08-20T06:33:27;102034.66;;;17.62;100.00
5996;BME280;3026;53.612;7.278;2023-08-20T06:35:55;102049.41;;;17.69;100.00
5996;BME280;3026;53.612;7.278;2023-08-20T06:38:22;102047.59;;;17.76;100.00
5996;BME280;3026;53.612;7.278;2023-08-20T06:40:52;102041.31;;;17.82;100.00
5996;BME280;3026;53.612;7.278;2023-08-20T06:43:19;102038.44;;;17.90;100.00
5996;BME280;3026;53.612;7.278;2023-08-20T06:45:46;102046.25;;;18.01;100.00
5996;BME280;3026;53.612;7.278;2023-08-20T06:48:14;102048.91;;;18.10;100.00
5996;BME280;3026;53.612;7.278;2023-08-20T06:50:44;102049.81;;;18.17;100.00
5996;BME280;3026;53.612;7.278;2023-08-20T06:53:12;102053.34;;;18.25;100.00
5996;BME280;3026;53.612;7.278;2023-08-20T06:55:41;102053.03;;;18.35;100.00
5996;BME280;3026;53.612;7.278;2023-08-20T06:58:08;102046.34;;;18.44;100.00
5996;BME280;3026;53.612;7.278;2023-08-20T07:00:37;102055.19;;;18.54;100.00
5996;BME280;3026;53.612;7.278;2023-08-20T07:03:05;102064.16;;;18.63;100.00
5996;BME280;3026;53.612;7.278;2023-08-20T07:05:32;102061.13;;;18.73;100.00
5996;BME280;3026;53.612;7.278;2023-08-20T07:08:02;102057.84;;;18.84;100.00
5996;BME280;3026;53.612;7.278;2023-08-20T07:10:35;102060.06;;;18.95;100.00
5996;BME280;3026;53.612;7.278;2023-08-20T07:13:02;102065.06;;;19.06;100.00
5996;BME280;3026;53.612;7.278;2023-08-20T07:15:31;102063.66;;;19.17;100.00
5996;BME280;3026;53.612;7.278;2023-08-20T07:17:58;102071.63;;;19.27;100.00
5996;BME280;3026;53.612;7.278;2023-08-20T07:20:25;102077.03;;;19.35;100.00
5996;BME280;3026;53.612;7.278;2023-08-20T07:22:52;102070.25;;;19.44;100.00
5996;BME280;3026;53.612;7.278;2023-08-20T07:25:22;102070.75;;;19.54;100.00
5996;BME280;3026;53.612;7.278;2023-08-20T07:27:49;102073.41;;;19.62;100.00
5996;BME280;3026;53.612;7.278;2023-08-20T07:30:19;102074.97;;;19.71;100.00
5996;BME280;3026;53.612;7.278;2023-08-20T07:32:46;102082.91;;;19.81;100.00
5996;BME280;3026;53.612;7.278;2023-08-20T07:35:13;102086.59;;;19.95;100.00
5996;BME280;3026;53.612;7.278;2023-08-20T07:37:40;102084.97;;;20.07;100.00
5996;BME280;3026;53.612;7.278;2023-08-20T07:40:09;102088.44;;;20.22;100.00
5996;BME280;3026;53.612;7.278;2023-08-20T07:42:39;102081.22;;;20.34;100.00
5996;BME280;3026;53.612;7.278;2023-08-20T07:45:07;102080.47;;;20.47;100.00
5996;BME280;3026;53.612;7.278;2023-08-20T07:47:35;102087.56;;;20.63;100.00
5996;BME280;3026;53.612;7.278;2023-08-20T07:50:04;102086.53;;;20.77;100.00
5996;BME280;3026;53.612;7.278;2023-08-20T07:52:32;102095.94;;;20.89;100.00
5996;BME280;3026;53.612;7.278;2023-08-20T07:55:00;102085.28;;;21.00;100.00
5996;BME280;3026;53.612;7.278;2023-08-20T07:57:29;102089.75;;;21.14;100.00
5996;BME280;3026;53.612;7.278;2023-08-20T07:59:58;102083.81;;;21.23;100.00
5996;BME280;3026;53.612;7.278;2023-08-20T08:02:25;102093.44;;;21.34;100.00
5996;BME280;3026;53.612;7.278;2023-08-20T08:04:54;102090.44;;;21.49;100.00
5996;BME280;3026;53.612;7.278;2023-08-20T08:07:21;102088.09;;;21.66;100.00
5996;BME280;3026;53.612;7.278;2023-08-20T08:09:48;102081.22;;;21.75;100.00
5996;BME280;3026;53.612;7.278;2023-08-20T08:12:16;102087.16;;;21.85;100.00
5996;BME280;3026;53.612;7.278;2023-08-20T08:14:43;102074.75;;;21.94;100.00
5996;BME280;3026;53.612;7.278;2023-08-20T08:17:14;102080.31;;;22.07;100.00
5996;BME280;3026;53.612;7.278;2023-08-20T08:19:41;102088.34;;;22.22;100.00
5996;BME280;3026;53.612;7.278;2023-08-20T08:22:09;102084.94;;;22.27;100.00
5996;BME280;3026;53.612;7.278;2023-08-20T08:24:36;102096.44;;;22.37;100.00
5996;BME280;3026;53.612;7.278;2023-08-20T08:27:03;102092.28;;;22.53;100.00
5996;BME280;3026;53.612;7.278;2023-08-20T08:29:30;102100.09;;;22.69;100.00
5996;BME280;3026;53.612;7.278;2023-08-20T08:31:58;102101.31;;;22.80;100.00
5996;BME280;3026;53.612;7.278;2023-08-20T08:34:26;102101.72;;;22.90;100.00
5996;BME280;3026;53.612;7.278;2023-08-20T08:36:55;102106.78;;;22.99;100.00
5996;BME280;3026;53.612;7.278;2023-08-20T08:39:23;102100.72;;;23.16;100.00
5996;BME280;3026;53.612;7.278;2023-08-20T08:41:56;102103.59;;;23.27;100.00
5996;BME280;3026;53.612;7.278;2023-08-20T08:44:27;102103.31;;;23.36;100.00
5996;BME280;3026;53.612;7.278;2023-08-20T08:47:01;102105.06;;;23.55;100.00
5996;BME280;3026;53.612;7.278;2023-08-20T08:49:31;102106.22;;;23.72;100.00
5996;BME280;3026;53.612;7.278;2023-08-20T08:52:03;102108.22;;;23.83;100.00
5996;BME280;3026;53.612;7.278;2023-08-20T08:54:33;102106.25;;;23.91;100.00
5996;BME280;3026;53.612;7.278;2023-08-20T08:57:02;102115.25;;;24.11;100.00
5996;BME280;3026;53.612;7.278;2023-08-20T08:59:29;102114.59;;;24.27;100.00
5996;BME280;3026;53.612;7.278;2023-08-20T09:02:01;102116.88;;;24.37;100.00
5996;BME280;3026;53.612;7.278;2023-08-20T09:04:38;102114.78;;;24.51;100.00
5996;BME280;3026;53.612;7.278;2023-08-20T09:07:06;102118.09;;;24.59;100.00
5996;BME280;3026;53.612;7.278;2023-08-20T09:09:37;102116.75;;;24.62;100.00
5996;BME280;3026;53.612;7.278;2023-08-20T09:12:12;102126.16;;;24.67;100.00
5996;BME280;3026;53.612;7.278;2023-08-20T09:14:45;102117.53;;;24.69;100.00
5996;BME280;3026;53.612;7.278;2023-08-20T09:17:13;102128.50;;;24.82;100.00
5996;BME280;3026;53.612;7.278;2023-08-20T09:19:43;102122.44;;;25.04;100.00
5996;BME280;3026;53.612;7.278;2023-08-20T09:22:11;102133.22;;;25.12;100.00
5996;BME280;3026;53.612;7.278;2023-08-20T09:24:41;102125.28;;;25.27;100.00
5996;BME280;3026;53.612;7.278;2023-08-20T09:27:09;102115.69;;;25.35;100.00
5996;BME280;3026;53.612;7.278;2023-08-20T09:29:43;102130.38;;;25.30;100.00
5996;BME280;3026;53.612;7.278;2023-08-20T09:32:14;102139.78;;;25.06;100.00
5996;BME280;3026;53.612;7.278;2023-08-20T09:34:43;102137.75;;;24.94;100.00
5996;BME280;3026;53.612;7.278;2023-08-20T09:37:10;102139.56;;;25.19;100.00
5996;BME280;3026;53.612;7.278;2023-08-20T09:39:37;102135.47;;;25.33;100.00
5996;BME280;3026;53.612;7.278;2023-08-20T09:42:05;102146.06;;;25.43;100.00
5996;BME280;3026;53.612;7.278;2023-08-20T09:44:34;102138.94;;;25.58;100.00
5996;BME280;3026;53.612;7.278;2023-08-20T09:47:03;102140.25;;;25.56;100.00
5996;BME280;3026;53.612;7.278;2023-08-20T09:49:35;102140.72;;;25.41;100.00
5996;BME280;3026;53.612;7.278;2023-08-20T09:52:06;102140.97;;;25.40;100.00
5996;BME280;3026;53.612;7.278;2023-08-20T09:54:41;102139.38;;;25.55;100.00
5996;BME280;3026;53.612;7.278;2023-08-20T09:57:16;102133.00;;;25.78;100.00
5996;BME280;3026;53.612;7.278;2023-08-20T09:59:46;102149.16;;;25.88;100.00
5996;BME280;3026;53.612;7.278;2023-08-20T10:02:14;102150.72;;;25.60;100.00
5996;BME280;3026;53.612;7.278;2023-08-20T10:04:42;102153.59;;;25.42;100.00
5996;BME280;3026;53.612;7.278;2023-08-20T10:07:12;102160.00;;;25.31;100.00
5996;BME280;3026;53.612;7.278;2023-08-20T10:09:40;102150.63;;;25.14;100.00
5996;BME280;3026;53.612;7.278;2023-08-20T10:12:11;102147.81;;;25.14;100.00
5996;BME280;3026;53.612;7.278;2023-08-20T10:14:39;102154.97;;;25.21;100.00
5996;BME280;3026;53.612;7.278;2023-08-20T10:17:07;102158.78;;;25.27;100.00
5996;BME280;3026;53.612;7.278;2023-08-20T10:19:36;102159.53;;;25.57;100.00
5996;BME280;3026;53.612;7.278;2023-08-20T10:22:06;102146.47;;;25.93;100.00
5996;BME280;3026;53.612;7.278;2023-08-20T10:24:41;102149.66;;;26.08;100.00
5996;BME280;3026;53.612;7.278;2023-08-20T10:27:24;102149.16;;;26.11;100.00
5996;BME280;3026;53.612;7.278;2023-08-20T10:29:52;102148.19;;;26.17;100.00
5996;BME280;3026;53.612;7.278;2023-08-20T10:32:20;102152.31;;;26.03;100.00
5996;BME280;3026;53.612;7.278;2023-08-20T10:34:51;102147.81;;;26.02;100.00
5996;BME280;3026;53.612;7.278;2023-08-20T10:37:26;102152.94;;;26.17;100.00
5996;BME280;3026;53.612;7.278;2023-08-20T10:39:56;102145.84;;;26.38;100.00
5996;BME280;3026;53.612;7.278;2023-08-20T10:42:26;102149.25;;;26.28;100.00
5996;BME280;3026;53.612;7.278;2023-08-20T10:45:00;102150.22;;;26.22;100.00
5996;BME280;3026;53.612;7.278;2023-08-20T10:47:37;102143.69;;;26.40;100.00
5996;BME280;3026;53.612;7.278;2023-08-20T10:50:04;102146.66;;;26.50;100.00
5996;BME280;3026;53.612;7.278;2023-08-20T10:52:38;102151.28;;;26.56;100.00
5996;BME280;3026;53.612;7.278;2023-08-20T10:55:08;102152.94;;;26.69;100.00
5996;BME280;3026;53.612;7.278;2023-08-20T10:57:36;102154.69;;;26.58;100.00
5996;BME280;3026;53.612;7.278;2023-08-20T11:00:04;102147.66;;;26.44;100.00
5996;BME280;3026;53.612;7.278;2023-08-20T11:02:37;102155.19;;;26.55;100.00
5996;BME280;3026;53.612;7.278;2023-08-20T11:05:18;102154.53;;;26.65;100.00
5996;BME280;3026;53.612;7.278;2023-08-20T11:07:47;102153.34;;;26.49;100.00
5996;BME280;3026;53.612;7.278;2023-08-20T11:10:16;102145.22;;;26.36;100.00
5996;BME280;3026;53.612;7.278;2023-08-20T11:12:46;102147.31;;;26.29;100.00
5996;BME280;3026;53.612;7.278;2023-08-20T11:15:13;102146.47;;;26.16;100.00
5996;BME280;3026;53.612;7.278;2023-08-20T11:17:41;102156.09;;;26.09;100.00
5996;BME280;3026;53.612;7.278;2023-08-20T11:20:09;102163.97;;;26.00;100.00
5996;BME280;3026;53.612;7.278;2023-08-20T11:22:38;102155.75;;;25.82;100.00
5996;BME280;3026;53.612;7.278;2023-08-20T11:25:09;102160.59;;;25.75;100.00
5996;BME280;3026;53.612;7.278;2023-08-20T11:27:40;102153.28;;;25.74;100.00
5996;BME280;3026;53.612;7.278;2023-08-20T11:30:08;102160.84;;;25.85;100.00
5996;BME280;3026;53.612;7.278;2023-08-20T11:32:38;102161.69;;;25.85;100.00
5996;BME280;3026;53.612;7.278;2023-08-20T11:35:06;102160.84;;;25.85;100.00
5996;BME280;3026;53.612;7.278;2023-08-20T11:37:34;102151.84;;;25.83;100.00
5996;BME280;3026;53.612;7.278;2023-08-20T11:40:01;102158.63;;;25.87;100.00
5996;BME280;3026;53.612;7.278;2023-08-20T11:42:28;102165.19;;;25.81;100.00
5996;BME280;3026;53.612;7.278;2023-08-20T11:44:57;102158.75;;;25.80;100.00
5996;BME280;3026;53.612;7.278;2023-08-20T11:47:24;102166.16;;;25.75;100.00
5996;BME280;3026;53.612;7.278;2023-08-20T11:50:03;102165.88;;;25.65;100.00
5996;BME280;3026;53.612;7.278;2023-08-20T11:52:31;102167.31;;;25.55;100.00
5996;BME280;3026;53.612;7.278;2023-08-20T11:54:59;102163.41;;;25.45;100.00
5996;BME280;3026;53.612;7.278;2023-08-20T11:57:28;102164.38;;;25.39;100.00
5996;BME280;3026;53.612;7.278;2023-08-20T12:00:00;102161.69;;;25.32;100.00
5996;BME280;3026;53.612;7.278;2023-08-20T12:02:29;102161.41;;;25.22;100.00
5996;BME280;3026;53.612;7.278;2023-08-20T12:04:56;102167.00;;;25.22;100.00
5996;BME280;3026;53.612;7.278;2023-08-20T12:07:25;102159.72;;;25.21;100.00
5996;BME280;3026;53.612;7.278;2023-08-20T12:09:54;102169.66;;;25.17;100.00
5996;BME280;3026;53.612;7.278;2023-08-20T12:12:22;102160.41;;;25.05;100.00
5996;BME280;3026;53.612;7.278;2023-08-20T12:14:50;102161.63;;;25.09;100.00
5996;BME280;3026;53.612;7.278;2023-08-20T12:17:19;102165.78;;;25.18;100.00
5996;BME280;3026;53.612;7.278;2023-08-20T12:19:46;102158.38;;;25.23;100.00
5996;BME280;3026;53.612;7.278;2023-08-20T12:22:13;102156.34;;;25.30;100.00
5996;BME280;3026;53.612;7.278;2023-08-20T12:24:40;102168.97;;;25.33;100.00
5996;BME280;3026;53.612;7.278;2023-08-20T12:27:07;102162.94;;;25.36;100.00
5996;BME280;3026;53.612;7.278;2023-08-20T12:29:36;102163.38;;;25.33;100.00
5996;BME280;3026;53.612;7.278;2023-08-20T12:32:03;102167.28;;;25.32;100.00
5996;BME280;3026;53.612;7.278;2023-08-20T12:34:34;102163.16;;;25.46;100.00
5996;BME280;3026;53.612;7.278;2023-08-20T12:37:02;102168.28;;;25.49;100.00
5996;BME280;3026;53.612;7.278;2023-08-20T12:39:29;102164.41;;;25.50;100.00
5996;BME280;3026;53.612;7.278;2023-08-20T12:41:56;102159.91;;;25.49;100.00
5996;BME280;3026;53.612;7.278;2023-08-20T12:44:24;102165.00;;;25.52;100.00
5996;BME280;3026;53.612;7.278;2023-08-20T12:46:51;102165.25;;;25.51;100.00
5996;BME280;3026;53.612;7.278;2023-08-20T12:49:18;102162.22;;;25.52;100.00
5996;BME280;3026;53.612;7.278;2023-08-20T12:51:48;102162.34;;;25.57;100.00
5996;BME280;3026;53.612;7.278;2023-08-20T12:54:14;102155.19;;;25.62;100.00
5996;BME280;3026;53.612;7.278;2023-08-20T12:56:42;102156.53;;;25.59;100.00
5996;BME280;3026;53.612;7.278;2023-08-20T12:59:09;102165.13;;;25.57;100.00
5996;BME280;3026;53.612;7.278;2023-08-20T13:01:36;102171.34;;;25.59;100.00
5996;BME280;3026;53.612;7.278;2023-08-20T13:04:04;102163.22;;;25.70;100.00
5996;BME280;3026;53.612;7.278;2023-08-20T13:06:31;102172.25;;;25.72;100.00
5996;BME280;3026;53.612;7.278;2023-08-20T13:09:00;102166.72;;;25.65;100.00
5996;BME280;3026;53.612;7.278;2023-08-20T13:11:28;102167.56;;;25.66;100.00
5996;BME280;3026;53.612;7.278;2023-08-20T13:13:58;102164.19;;;25.64;100.00
5996;BME280;3026;53.612;7.278;2023-08-20T13:16:26;102162.47;;;25.63;100.00
5996;BME280;3026;53.612;7.278;2023-08-20T13:18:53;102171.47;;;25.65;100.00
5996;BME280;3026;53.612;7.278;2023-08-20T13:21:20;102168.91;;;25.63;100.00
5996;BME280;3026;53.612;7.278;2023-08-20T13:23:49;102174.50;;;25.63;100.00
5996;BME280;3026;53.612;7.278;2023-08-20T13:26:22;102172.44;;;25.58;100.00
5996;BME280;3026;53.612;7.278;2023-08-20T13:28:49;102172.06;;;25.55;100.00
5996;BME280;3026;53.612;7.278;2023-08-20T13:31:17;102180.69;;;25.53;100.00
5996;BME280;3026;53.612;7.278;2023-08-20T13:33:44;102175.59;;;25.50;100.00
5996;BME280;3026;53.612;7.278;2023-08-20T13:36:11;102173.28;;;25.47;100.00